Time;durP1;ratioP1;P1;durP2;ratioP2;P2;SDS_P1;SDS_P2;PMS_P1;PMS_P2;Temp;Humidity;BMP_temperature;BMP_pressure;BME280_temperature;BME280_humidity;BME280_pressure;Samples;Min_cycle;Max_cycle;Signal;HPM_P1;HPM_P2
2022/03/05 00:00:16;;;;;;;8.18;3.28;;;;;;;6.79;100.00;99738.50;6145152;23;20028;-86
2022/03/05 00:02:42;;;;;;;4.40;3.28;;;;;;;7.06;100.00;99754.97;6169424;23;20045;-85
2022/03/05 00:05:09;;;;;;;7.57;3.13;;;;;;;7.15;100.00;99761.06;6145025;23;20017;-86
2022/03/05 00:07:36;;;;;;;5.07;2.92;;;;;;;6.81;100.00;99741.75;6170479;23;20032;-90
2022/03/05 00:10:03;;;;;;;6.88;2.80;;;;;;;6.69;100.00;99743.81;6170697;23;20016;-87
2022/03/05 00:12:30;;;;;;;7.22;3.30;;;;;;;6.81;100.00;99757.41;6141871;23;20451;-85
2022/03/05 00:14:59;;;;;;;5.03;3.60;;;;;;;6.79;100.00;99768.97;6168064;23;20017;-86
2022/03/05 00:17:24;;;;;;;4.85;3.00;;;;;;;7.18;100.00;99758.13;6144876;23;20064;-85
2022/03/05 00:19:50;;;;;;;5.10;3.38;;;;;;;7.00;100.00;99755.59;6166061;23;20013;-85
2022/03/05 00:22:15;;;;;;;6.75;3.30;;;;;;;7.35;100.00;99769.47;6168039;23;20017;-87
2022/03/05 00:24:41;;;;;;;9.10;2.97;;;;;;;7.21;100.00;99768.25;6167394;23;20017;-85
2022/03/05 00:27:08;;;;;;;9.30;3.22;;;;;;;7.35;100.00;99785.16;6143650;23;20017;-89
2022/03/05 00:29:34;;;;;;;5.47;3.08;;;;;;;7.12;100.00;99774.44;6170376;23;20028;-88
2022/03/05 00:32:00;;;;;;;9.20;3.90;;;;;;;7.27;100.00;99772.91;6144993;23;20009;-86
2022/03/05 00:34:26;;;;;;;7.15;2.50;;;;;;;6.86;100.00;99775.22;6144530;23;20339;-87
2022/03/05 00:36:51;;;;;;;7.53;3.22;;;;;;;6.97;100.00;99764.53;6170152;23;20467;-88
2022/03/05 00:39:17;;;;;;;4.15;2.42;;;;;;;7.36;100.00;99757.25;6144874;23;20020;-87
2022/03/05 00:41:43;;;;;;;5.68;2.80;;;;;;;7.17;100.00;99760.88;6147654;23;20017;-89
2022/03/05 00:44:10;;;;;;;7.60;2.40;;;;;;;7.32;100.00;99771.59;6145175;23;20020;-88
2022/03/05 00:46:36;;;;;;;6.15;2.00;;;;;;;7.03;100.00;99770.09;6146273;23;20016;-90
2022/03/05 00:49:03;;;;;;;7.63;2.03;;;;;;;6.87;100.00;99732.47;6146656;23;20047;-88
2022/03/05 00:51:29;;;;;;;2.88;1.80;;;;;;;7.00;100.00;99771.25;6169820;23;20013;-88
2022/03/05 00:53:55;;;;;;;9.48;2.47;;;;;;;7.15;100.00;99753.22;6146263;23;20009;-90
2022/03/05 00:56:20;;;;;;;5.63;2.15;;;;;;;6.95;100.00;99748.22;6170703;23;20044;-88
2022/03/05 00:58:46;;;;;;;5.45;2.05;;;;;;;7.05;100.00;99757.72;6144770;23;20020;-87
2022/03/05 01:01:12;;;;;;;6.47;2.13;;;;;;;7.09;100.00;99787.78;6143946;23;20092;-86
2022/03/05 01:03:38;;;;;;;2.85;1.77;;;;;;;7.13;100.00;99776.88;6143270;23;20017;-85
2022/03/05 01:06:05;;;;;;;8.15;2.53;;;;;;;7.55;100.00;99790.16;6142176;23;20013;-87
2022/03/05 01:08:33;;;;;;;5.55;2.17;;;;;;;7.29;100.00;99797.06;6142641;23;20024;-88
2022/03/05 01:10:59;;;;;;;8.25;2.50;;;;;;;7.22;100.00;99798.63;6165850;23;20033;-86
2022/03/05 01:13:25;;;;;;;8.82;2.40;;;;;;;7.09;100.00;99808.69;6166715;23;20100;-87
2022/03/05 01:15:51;;;;;;;2.80;1.48;;;;;;;7.42;100.00;99795.81;6141534;23;20460;-85
2022/03/05 01:18:17;;;;;;;6.68;2.10;;;;;;;7.07;100.00;99787.94;6140317;23;20024;-85
2022/03/05 01:20:42;;;;;;;7.72;2.10;;;;;;;7.05;100.00;99799.47;6167184;23;20015;-86
2022/03/05 01:23:08;;;;;;;5.82;1.80;;;;;;;7.03;100.00;99809.25;6147949;23;20440;-85
2022/03/05 01:25:34;;;;;;;6.15;2.83;;;;;;;7.03;100.00;99775.31;6155192;23;20016;-85
2022/03/05 01:28:00;;;;;;;5.57;1.80;;;;;;;7.11;100.00;99783.22;6152471;23;20032;-87
2022/03/05 01:30:26;;;;;;;7.00;2.58;;;;;;;7.24;100.00;99801.91;6171909;23;20015;-86
2022/03/05 01:32:52;;;;;;;7.93;2.80;;;;;;;7.22;100.00;99798.63;6170808;23;20013;-86
2022/03/05 01:35:18;;;;;;;6.28;1.90;;;;;;;7.05;100.00;99796.88;6143829;23;20467;-86
2022/03/05 01:37:46;;;;;;;6.93;2.15;;;;;;;6.95;100.00;99805.63;6191309;23;20019;-86
2022/03/05 01:40:12;;;;;;;10.48;2.72;;;;;;;7.26;100.00;99797.34;6163301;23;20096;-84
2022/03/05 01:42:37;;;;;;;4.15;1.50;;;;;;;6.58;100.00;99772.72;6190450;23;20083;-87
2022/03/05 01:45:04;;;;;;;6.80;1.75;;;;;;;7.00;100.00;99803.38;6190656;23;20021;-84
2022/03/05 01:47:30;;;;;;;4.68;1.55;;;;;;;7.03;100.00;99806.66;6163985;23;20028;-86
2022/03/05 01:49:56;;;;;;;8.52;1.90;;;;;;;6.84;100.00;99798.03;6139482;23;20009;-86
2022/03/05 01:52:21;;;;;;;3.58;1.40;;;;;;;6.98;100.00;99794.88;6140423;23;20095;-85
2022/03/05 01:54:49;;;;;;;13.13;2.33;;;;;;;6.77;100.00;99807.44;6188590;23;20013;-86
2022/03/05 01:57:14;;;;;;;5.63;1.90;;;;;;;6.88;100.00;99807.22;6139996;23;20016;-86
2022/03/05 01:59:40;;;;;;;4.78;1.73;;;;;;;6.81;100.00;99806.16;6191192;23;20016;-84
2022/03/05 02:02:06;;;;;;;6.75;1.77;;;;;;;7.00;100.00;99797.34;6165834;23;20013;-84
2022/03/05 02:04:31;;;;;;;7.95;1.80;;;;;;;6.76;100.00;99805.81;6141374;23;20052;-84
2022/03/05 02:06:58;;;;;;;7.32;1.67;;;;;;;6.96;100.00;99796.84;6161764;23;20019;-88
2022/03/05 02:09:24;;;;;;;2.95;1.17;;;;;;;6.88;100.00;99799.41;6164988;23;20016;-85
2022/03/05 02:11:49;;;;;;;5.60;1.73;;;;;;;6.79;100.00;99798.50;6162001;23;20328;-85
2022/03/05 02:14:19;;;;;;;6.20;1.50;;;;;;;6.67;100.00;99813.53;6163199;23;20043;-85
2022/03/05 02:16:46;;;;;;;6.22;1.73;;;;;;;6.83;100.00;99791.19;6140012;23;20017;-87
2022/03/05 02:19:12;;;;;;;4.93;1.30;;;;;;;6.77;100.00;99802.22;6164429;23;20095;-87
2022/03/05 02:21:38;;;;;;;6.45;1.42;;;;;;;6.60;100.00;99809.09;6141739;23;20017;-87
2022/03/05 02:24:04;;;;;;;4.72;1.45;;;;;;;6.63;100.00;99800.97;6167668;23;20177;-85
2022/03/05 02:26:30;;;;;;;3.17;2.28;;;;;;;6.93;100.00;99783.25;6141437;23;20081;-87
2022/03/05 02:28:55;;;;;;;6.55;1.50;;;;;;;6.98;100.00;99809.75;6140968;23;20099;-85
2022/03/05 02:31:22;;;;;;;7.15;1.33;;;;;;;6.88;100.00;99804.63;6140031;23;20009;-85
2022/03/05 02:33:52;;;;;;;6.20;2.05;;;;;;;6.74;100.00;99819.00;6165899;23;20041;-85
2022/03/05 02:36:22;;;;;;;6.57;1.55;;;;;;;6.87;100.00;99813.38;6140576;23;20037;-87
2022/03/05 02:38:52;;;;;;;4.90;1.48;;;;;;;6.94;100.00;99811.00;6192216;23;20012;-85
2022/03/05 02:41:18;;;;;;;5.90;1.40;;;;;;;6.87;100.00;99813.38;6140972;23;20017;-85
2022/03/05 02:43:45;;;;;;;5.60;1.40;;;;;;;6.82;100.00;99815.63;6166977;23;20023;-85
2022/03/05 02:46:11;;;;;;;2.53;1.02;;;;;;;6.54;100.00;99800.09;6142641;23;20036;-87
2022/03/05 02:48:37;;;;;;;4.82;2.33;;;;;;;6.65;100.00;99823.31;6166174;23;20016;-86
2022/03/05 02:51:03;;;;;;;5.82;1.30;;;;;;;6.67;100.00;99829.19;6164561;23;20001;-85
2022/03/05 02:53:31;;;;;;;3.72;0.90;;;;;;;6.81;100.00;99811.38;6164027;23;20013;-85
2022/03/05 02:55:56;;;;;;;6.50;1.55;;;;;;;6.93;100.00;99807.59;6166271;23;20033;-85
2022/03/05 02:58:22;;;;;;;2.97;1.10;;;;;;;6.80;100.00;99802.75;6164115;23;20016;-87
2022/03/05 03:00:50;;;;;;;7.38;1.75;;;;;;;6.80;100.00;99801.91;6191985;23;20009;-84
2022/03/05 03:03:15;;;;;;;2.08;1.13;;;;;;;6.63;100.00;99807.00;6141617;23;20048;-85
2022/03/05 03:05:41;;;;;;;6.70;2.90;;;;;;;6.51;100.00;99808.22;6141344;23;20037;-86
2022/03/05 03:08:07;;;;;;;9.25;1.88;;;;;;;6.86;100.00;99824.78;6165251;23;20380;-84
2022/03/05 03:10:33;;;;;;;2.38;1.50;;;;;;;6.72;100.00;99818.31;6165401;23;20020;-85
2022/03/05 03:12:59;;;;;;;5.45;1.35;;;;;;;6.56;100.00;99817.19;6164301;23;20009;-86
2022/03/05 03:15:25;;;;;;;5.32;1.52;;;;;;;6.84;100.00;99819.75;6142484;23;20470;-86
2022/03/05 03:17:59;;;;;;;5.43;1.40;;;;;;;6.34;100.00;99823.69;6142062;23;20045;-86
2022/03/05 03:20:28;;;;;;;6.97;1.77;;;;;;;6.53;100.00;99817.50;6137204;23;20120;-86
2022/03/05 03:22:55;;;;;;;5.38;1.58;;;;;;;6.72;100.00;99806.13;6138515;23;20048;-87
2022/03/05 03:25:21;;;;;;;7.47;1.42;;;;;;;6.61;100.00;99806.34;6162244;23;20515;-86
2022/03/05 03:27:48;;;;;;;8.48;1.30;;;;;;;6.82;100.00;99820.84;6138600;23;20020;-84
2022/03/05 03:30:15;;;;;;;4.95;1.50;;;;;;;6.65;100.00;99818.09;6137189;23;20017;-85
2022/03/05 03:32:41;;;;;;;3.40;1.95;;;;;;;6.63;100.00;99832.28;6162300;23;20005;-84
2022/03/05 03:35:10;;;;;;;7.55;1.52;;;;;;;5.98;100.00;99794.91;6139620;23;20017;-85
2022/03/05 03:37:36;;;;;;;5.60;1.92;;;;;;;6.38;100.00;99826.81;6139393;23;20017;-84
2022/03/05 03:40:09;;;;;;;5.10;1.38;;;;;;;6.50;100.00;99807.38;6139167;23;20019;-85
2022/03/05 03:42:35;;;;;;;5.70;1.48;;;;;;;5.98;100.00;99813.16;6163983;23;20016;-85
2022/03/05 03:45:02;;;;;;;4.28;1.33;;;;;;;6.42;100.00;99836.00;6189240;23;20013;-84
2022/03/05 03:47:27;;;;;;;5.40;1.17;;;;;;;6.19;100.00;99825.16;6139030;23;20037;-85
2022/03/05 03:49:53;;;;;;;5.80;1.17;;;;;;;6.00;100.00;99819.06;6166553;23;20072;-86
2022/03/05 03:52:18;;;;;;;5.65;1.40;;;;;;;6.09;100.00;99812.19;6142596;23;20012;-86
2022/03/05 03:54:46;;;;;;;4.60;1.52;;;;;;;6.12;100.00;99848.38;6144025;23;20020;-84
2022/03/05 03:57:12;;;;;;;3.83;1.30;;;;;;;5.86;100.00;99841.19;6196176;23;20016;-86
2022/03/05 03:59:37;;;;;;;7.78;1.42;;;;;;;6.05;100.00;99842.91;6142863;23;20021;-87
2022/03/05 04:02:04;;;;;;;3.67;1.08;;;;;;;5.81;100.00;99844.22;6143184;23;20017;-85
2022/03/05 04:04:30;;;;;;;7.95;1.40;;;;;;;5.72;100.00;99845.09;6145656;23;20013;-88
2022/03/05 04:09:41;;;;;;;4.38;1.42;;;;;;;5.76;100.00;99841.25;6170840;23;20035;-87
2022/03/05 04:12:07;;;;;;;9.85;2.90;;;;;;;5.81;100.00;99841.63;6194825;23;20032;-85
2022/03/05 04:14:33;;;;;;;6.97;1.50;;;;;;;5.88;100.00;99846.25;6167516;23;20356;-85
2022/03/05 04:16:59;;;;;;;4.75;1.10;;;;;;;6.25;100.00;99845.41;6167646;23;20009;-87
2022/03/05 04:19:24;;;;;;;3.55;0.95;;;;;;;6.02;100.00;99845.81;6144114;23;20024;-91
2022/03/05 04:21:50;;;;;;;9.82;1.48;;;;;;;6.07;100.00;99854.00;6143959;23;20348;-88
2022/03/05 04:24:16;;;;;;;7.50;1.30;;;;;;;6.23;100.00;99856.00;6168224;23;20024;-87
2022/03/05 04:26:42;;;;;;;5.20;1.10;;;;;;;6.10;100.00;99856.34;6167897;23;20021;-86
2022/03/05 04:29:08;;;;;;;5.80;1.52;;;;;;;6.13;100.00;99884.72;6167900;23;20076;-87
2022/03/05 04:31:34;;;;;;;9.55;1.83;;;;;;;5.86;100.00;99868.06;6167890;23;20044;-85
2022/03/05 04:33:59;;;;;;;3.53;0.95;;;;;;;5.92;100.00;99851.03;6191567;23;20009;-87
2022/03/05 04:36:25;;;;;;;6.55;1.60;;;;;;;6.18;100.00;99855.59;6193407;23;20017;-86
2022/03/05 04:38:50;;;;;;;6.15;1.20;;;;;;;6.22;100.00;99861.34;6165406;23;20009;-87
2022/03/05 04:41:17;;;;;;;11.13;1.40;;;;;;;6.10;100.00;99877.22;6168334;23;20017;-86
2022/03/05 04:43:42;;;;;;;2.20;1.02;;;;;;;6.06;100.00;99875.84;6141111;23;20069;-85
2022/03/05 04:46:08;;;;;;;4.82;1.00;;;;;;;6.23;100.00;99866.44;6142026;23;20017;-86
2022/03/05 04:48:34;;;;;;;5.30;1.90;;;;;;;6.08;100.00;99883.53;6166904;23;20020;-86
2022/03/05 04:50:59;;;;;;;13.88;3.53;;;;;;;5.90;100.00;99859.97;6141232;23;20009;-86
2022/03/05 04:53:25;;;;;;;7.30;1.35;;;;;;;6.02;100.00;99884.91;6140063;23;20021;-86
2022/03/05 04:55:51;;;;;;;7.45;1.30;;;;;;;5.90;100.00;99883.44;6143010;23;20017;-87
2022/03/05 04:58:18;;;;;;;7.20;1.55;;;;;;;5.65;100.00;99898.72;6166990;23;20391;-86
2022/03/05 05:00:44;;;;;;;5.43;1.58;;;;;;;5.83;100.00;99891.81;6143131;23;20013;-87
2022/03/05 05:03:10;;;;;;;7.05;1.67;;;;;;;5.57;100.00;99894.19;6167402;23;20039;-86
2022/03/05 05:05:36;;;;;;;10.35;1.75;;;;;;;6.20;100.00;99890.19;6192084;23;20023;-87
2022/03/05 05:08:03;;;;;;;7.53;1.20;;;;;;;5.65;100.00;99885.69;6165965;23;20013;-85
2022/03/05 05:10:29;;;;;;;6.60;0.98;;;;;;;5.69;100.00;99867.03;6142428;23;20044;-85
2022/03/05 05:12:54;;;;;;;4.28;1.20;;;;;;;6.20;100.00;99905.00;6173389;23;20009;-84
2022/03/05 05:15:21;;;;;;;4.57;1.27;;;;;;;5.82;100.00;99892.78;6174386;23;20017;-84
2022/03/05 05:17:46;;;;;;;5.13;1.45;;;;;;;5.78;100.00;99901.84;6169542;23;20012;-83
2022/03/05 05:20:12;;;;;;;5.18;1.10;;;;;;;5.81;100.00;99900.75;6143111;23;20016;-86
2022/03/05 05:22:38;;;;;;;6.15;1.13;;;;;;;6.31;100.00;99910.03;6165868;23;20395;-85
2022/03/05 05:25:05;;;;;;;11.57;1.20;;;;;;;6.21;100.00;99917.06;6193233;23;20012;-87
2022/03/05 05:27:35;;;;;;;6.25;1.42;;;;;;;5.98;100.00;99918.22;6167431;23;20016;-86
2022/03/05 05:30:01;;;;;;;7.18;1.13;;;;;;;6.21;100.00;99909.25;6166540;23;20013;-85
2022/03/05 05:32:27;;;;;;;8.85;1.15;;;;;;;5.94;100.00;99924.69;6140969;23;20011;-87
2022/03/05 05:34:53;;;;;;;5.05;1.00;;;;;;;5.68;100.00;99888.00;6190228;23;20388;-87
2022/03/05 05:37:20;;;;;;;4.95;1.20;;;;;;;5.57;100.00;99887.22;6163684;23;20016;-85
2022/03/05 05:39:46;;;;;;;6.30;1.52;;;;;;;5.89;100.00;99931.28;6164054;23;20352;-85
2022/03/05 05:42:12;;;;;;;3.42;1.20;;;;;;;5.90;100.00;99925.13;6138636;23;20013;-85
2022/03/05 05:44:38;;;;;;;5.57;1.20;;;;;;;5.76;100.00;99935.03;6140171;23;20047;-84
2022/03/05 05:47:04;;;;;;;3.03;0.93;;;;;;;6.08;100.00;99933.03;6189519;23;20444;-84
2022/03/05 05:49:30;;;;;;;8.93;1.15;;;;;;;5.53;100.00;99906.72;6164217;23;20017;-85
2022/03/05 05:51:55;;;;;;;7.75;1.10;;;;;;;5.55;100.00;99938.63;6163381;23;20005;-84
2022/03/05 05:54:22;;;;;;;17.67;1.67;;;;;;;6.12;100.00;99937.84;6138337;23;20040;-85
2022/03/05 05:56:47;;;;;;;11.77;1.67;;;;;;;5.83;100.00;99949.13;6163381;23;20343;-84
2022/03/05 05:59:13;;;;;;;7.32;1.02;;;;;;;6.10;100.00;99937.16;6139672;23;20017;-86
2022/03/05 06:01:39;;;;;;;9.07;1.95;;;;;;;5.89;100.00;99923.47;6139878;23;20321;-84
2022/03/05 06:04:04;;;;;;;9.38;1.35;;;;;;;5.75;100.00;99922.97;6165521;23;20068;-86
2022/03/05 06:06:30;;;;;;;5.15;1.27;;;;;;;5.78;100.00;99940.06;6137972;23;20013;-86
2022/03/05 06:08:56;;;;;;;10.98;1.58;;;;;;;6.05;100.00;99955.00;6161500;23;20092;-84
2022/03/05 06:11:21;;;;;;;6.53;1.38;;;;;;;5.85;100.00;99969.84;6139950;23;20013;-87
2022/03/05 06:13:47;;;;;;;10.00;1.38;;;;;;;5.83;100.00;99959.53;6189881;23;20013;-88
2022/03/05 06:16:12;;;;;;;8.35;1.60;;;;;;;5.78;100.00;99985.22;6138475;23;20017;-85
2022/03/05 06:18:39;;;;;;;7.47;1.65;;;;;;;5.57;100.00;99969.72;6162012;23;20020;-85
2022/03/05 06:21:05;;;;;;;9.35;1.08;;;;;;;5.83;100.00;99969.97;6188162;23;20020;-84
2022/03/05 06:23:32;;;;;;;8.93;1.65;;;;;;;5.82;100.00;99988.38;6162555;23;20412;-86
2022/03/05 06:25:58;;;;;;;4.50;1.02;;;;;;;5.85;100.00;99978.47;6163517;23;20041;-85
2022/03/05 06:28:23;;;;;;;6.15;0.82;;;;;;;6.03;100.00;99962.13;6166265;23;20009;-85
2022/03/05 06:30:49;;;;;;;5.65;1.45;;;;;;;5.63;100.00;99969.19;6143248;23;20020;-86
2022/03/05 06:33:15;;;;;;;7.90;1.30;;;;;;;5.78;100.00;99964.38;6142991;23;20547;-86
2022/03/05 06:35:40;;;;;;;5.00;1.38;;;;;;;5.73;100.00;99966.56;6168407;23;20076;-88
2022/03/05 06:38:06;;;;;;;4.03;1.25;;;;;;;5.82;100.00;99990.97;6168036;23;20005;-87
2022/03/05 06:40:32;;;;;;;9.75;2.38;;;;;;;5.72;100.00;99981.38;6141264;23;20005;-84
2022/03/05 06:42:58;;;;;;;9.57;1.60;;;;;;;5.80;100.00;99982.47;6139328;23;20024;-84
2022/03/05 06:45:23;;;;;;;5.00;1.23;;;;;;;5.90;100.00;99983.25;6139173;23;20009;-84
2022/03/05 06:47:49;;;;;;;9.73;1.67;;;;;;;5.72;100.00;99980.56;6139193;23;20048;-86
2022/03/05 06:50:15;;;;;;;7.10;1.77;;;;;;;6.07;100.00;99984.34;6146752;23;20017;-87
2022/03/05 06:52:40;;;;;;;7.13;1.27;;;;;;;5.91;100.00;99948.41;6198070;23;20016;-88
2022/03/05 06:55:07;;;;;;;8.45;1.75;;;;;;;5.52;100.00;99980.59;6147635;23;20051;-87
2022/03/05 06:57:33;;;;;;;8.23;1.67;;;;;;;5.73;100.00;99982.22;6171365;23;20013;-88
2022/03/05 06:59:59;;;;;;;6.55;1.92;;;;;;;6.12;100.00;100002.16;6146519;23;20021;-86
2022/03/05 07:02:24;;;;;;;8.18;1.50;;;;;;;6.08;100.00;99996.41;6172791;23;20101;-90
2022/03/05 07:04:50;;;;;;;6.82;1.20;;;;;;;6.25;100.00;99973.16;6148456;23;20017;-89
2022/03/05 07:07:16;;;;;;;10.15;2.03;;;;;;;6.00;100.00;99999.72;6148961;23;20021;-87
2022/03/05 07:09:42;;;;;;;7.28;1.55;;;;;;;5.39;100.00;99946.19;6146307;23;20024;-89
2022/03/05 07:12:09;;;;;;;8.70;1.40;;;;;;;5.60;100.00;99950.41;6146451;23;20444;-88
2022/03/05 07:14:36;;;;;;;7.78;1.35;;;;;;;6.09;100.00;99990.25;6171883;23;20041;-87
2022/03/05 07:17:03;;;;;;;6.00;1.23;;;;;;;5.97;100.00;100009.59;6196739;23;20009;-86
2022/03/05 07:19:28;;;;;;;9.90;1.52;;;;;;;5.81;100.00;99999.75;6170236;23;20017;-86
2022/03/05 07:21:54;;;;;;;9.45;1.42;;;;;;;5.96;100.00;99997.53;6170219;23;20024;-87
2022/03/05 07:24:20;;;;;;;10.95;1.67;;;;;;;5.83;100.00;100003.03;6195128;23;20013;-88
2022/03/05 07:26:45;;;;;;;6.78;1.33;;;;;;;6.10;100.00;100010.16;6196420;23;20028;-86
2022/03/05 07:29:11;;;;;;;5.90;1.48;;;;;;;5.79;100.00;99997.28;6145999;23;20024;-89
2022/03/05 07:31:38;;;;;;;8.48;1.60;;;;;;;5.78;100.00;100029.50;6147555;23;20443;-88
2022/03/05 07:34:03;;;;;;;7.70;1.70;;;;;;;6.11;100.00;100017.00;6169559;23;20013;-88
2022/03/05 07:36:30;;;;;;;8.77;1.60;;;;;;;5.91;100.00;100034.41;6196389;23;20089;-89
2022/03/05 07:38:56;;;;;;;10.93;1.83;;;;;;;5.72;100.00;100032.66;6144334;23;20012;-86
2022/03/05 07:41:22;;;;;;;8.40;1.42;;;;;;;5.85;100.00;100022.75;6195206;23;20009;-91
2022/03/05 07:43:48;;;;;;;12.60;1.58;;;;;;;6.06;100.00;100042.66;6169746;23;20308;-89
2022/03/05 07:46:14;;;;;;;7.75;1.60;;;;;;;6.00;100.00;100037.97;6148096;23;20428;-89
2022/03/05 07:48:39;;;;;;;9.57;1.50;;;;;;;6.30;100.00;100036.16;6172032;23;20020;-88
2022/03/05 07:51:05;;;;;;;12.05;1.50;;;;;;;6.45;100.00;100048.72;6145709;23;20024;-90
2022/03/05 07:53:31;;;;;;;11.93;1.40;;;;;;;5.99;100.00;100051.97;6152020;23;20020;-87
2022/03/05 07:55:58;;;;;;;6.63;1.30;;;;;;;5.98;100.00;100068.56;6197936;23;20008;-88
2022/03/05 07:58:23;;;;;;;6.13;1.20;;;;;;;6.11;100.00;100042.22;6149895;23;20072;-90
2022/03/05 08:00:49;;;;;;;7.15;1.38;;;;;;;5.98;100.00;100052.94;6177869;23;20019;-87
2022/03/05 08:03:15;;;;;;;8.38;1.63;;;;;;;5.82;100.00;100064.72;6173964;23;20013;-89
2022/03/05 08:05:43;;;;;;;8.25;1.65;;;;;;;5.55;100.00;100021.13;6173214;23;20037;-88
2022/03/05 08:08:17;;;;;;;10.68;1.38;;;;;;;5.74;100.00;100007.28;6181477;23;20009;-88
2022/03/05 08:10:43;;;;;;;13.02;2.85;;;;;;;5.92;100.00;100053.50;6157793;23;20107;-90
2022/03/05 08:13:14;;;;;;;11.02;1.85;;;;;;;6.22;100.00;100062.09;6161627;23;20024;-89
2022/03/05 08:15:40;;;;;;;7.00;1.50;;;;;;;6.09;100.00;100047.59;6132681;23;20013;-88
